Estación de Colegual INIA

Ultimos registro cada 15 minutos 75
Estación Fecha / Hora Temperatura Humedad Lluvia Velocidad Dirección Radiación Presion
75 Colegual INIA 04-05-2026 18:30 10,7 93,2 0 1,2 225 0 991
74 Colegual INIA 04-05-2026 18:15 10,7 93,8 0 1,4 242 0 991
73 Colegual INIA 04-05-2026 18:00 10,8 93,5 0 1,4 231 1 991
72 Colegual INIA 04-05-2026 17:45 10,9 93 0 1,4 207 6 991
71 Colegual INIA 04-05-2026 17:30 11,1 92,4 0 1,6 203 19 991
70 Colegual INIA 04-05-2026 17:15 11,2 90,3 0 1,2 192 35 991
69 Colegual INIA 04-05-2026 17:00 11,3 89,3 0 1,9 174 47 991
68 Colegual INIA 04-05-2026 16:45 11,9 87,1 0 2,3 169 45 991
67 Colegual INIA 04-05-2026 16:30 12,3 84,4 0 1,3 187 70 990
66 Colegual INIA 04-05-2026 16:15 12,3 85,6 0 1,2 185 105 990
65 Colegual INIA 04-05-2026 16:00 12,2 83,3 0 2,2 159 92 990
64 Colegual INIA 04-05-2026 15:45 12,3 83,5 0 1,9 174 106 990
63 Colegual INIA 04-05-2026 15:30 12,3 84,2 0 2,4 167 160 990
62 Colegual INIA 04-05-2026 15:15 12,2 87,1 0 2,3 174 173 990
61 Colegual INIA 04-05-2026 15:00 11,9 87,3 0 2,6 177 122 990
60 Colegual INIA 04-05-2026 14:45 11,8 94,4 0 1,5 196 154 990
59 Colegual INIA 04-05-2026 14:30 11,5 95,2 0 1,5 200 172 990
58 Colegual INIA 04-05-2026 14:15 11,3 95,5 0,3 3,1 209 101 990
57 Colegual INIA 04-05-2026 14:00 11,4 95,8 0,3 2,6 214 97 990
56 Colegual INIA 04-05-2026 13:45 11,5 94,2 0,2 3,3 213 99 990
55 Colegual INIA 04-05-2026 13:30 11,7 92,8 0,1 3,8 220 130 990
54 Colegual INIA 04-05-2026 13:15 11,7 92 0 3,3 212 170 990
53 Colegual INIA 04-05-2026 13:00 11,6 92 0 3,5 218 152 990
52 Colegual INIA 04-05-2026 12:45 11,4 92,1 0 4,1 220 188 990
51 Colegual INIA 04-05-2026 12:30 11,2 93 0 3,6 221 156 991
50 Colegual INIA 04-05-2026 12:15 11 94,3 0 3,5 221 170 991
49 Colegual INIA 04-05-2026 12:00 10,7 95,4 0 4,1 222 165 991
48 Colegual INIA 04-05-2026 11:45 10,6 95,6 0 4 219 115 991
47 Colegual INIA 04-05-2026 11:30 10,4 95,8 0 4,1 221 97 991
46 Colegual INIA 04-05-2026 11:15 10,2 96 0 4 220 86 990
45 Colegual INIA 04-05-2026 11:00 10,1 96 0 3,9 221 59 990
44 Colegual INIA 04-05-2026 10:45 10,1 96,3 0 4 224 70 990
43 Colegual INIA 04-05-2026 10:30 9,9 95,9 0 3,9 226 88 991
42 Colegual INIA 04-05-2026 10:15 9,7 96,6 0 4 227 58 991
41 Colegual INIA 04-05-2026 10:00 9,6 96,9 0 4,5 232 46 991
40 Colegual INIA 04-05-2026 09:45 9,5 97,1 0 4 235 41 991
39 Colegual INIA 04-05-2026 09:30 9,4 97,7 0 4,2 231 35 991
38 Colegual INIA 04-05-2026 09:15 9,4 98 0 4,2 232 27 991
37 Colegual INIA 04-05-2026 09:00 9,3 97,6 0,1 3,6 226 15 991
36 Colegual INIA 04-05-2026 08:45 9,3 97,4 0,1 3,2 229 12 991
35 Colegual INIA 04-05-2026 08:30 9,3 97,5 0 3,3 231 7 991
34 Colegual INIA 04-05-2026 08:15 9,3 97,7 0 3,5 232 4 991
33 Colegual INIA 04-05-2026 08:00 9,2 97,7 0 3,5 234 2 991
32 Colegual INIA 04-05-2026 07:45 9,2 97,7 0 3,4 231 0 991
31 Colegual INIA 04-05-2026 07:30 9,1 97,9 0 3,6 233 0 990
30 Colegual INIA 04-05-2026 07:15 9,1 97,8 0 3,4 234 0 991
29 Colegual INIA 04-05-2026 07:00 9,1 97,7 0 3,6 235 0 991
28 Colegual INIA 04-05-2026 06:45 9,1 98,3 0 3,2 229 0 991
27 Colegual INIA 04-05-2026 06:30 9,1 98,7 0 3,1 234 0 991
26 Colegual INIA 04-05-2026 06:15 9 99 0,1 2,7 232 0 991
25 Colegual INIA 04-05-2026 06:00 8,9 98,5 0,1 2,2 227 0 991
24 Colegual INIA 04-05-2026 05:45 8,9 98 0,1 2 225 0 991
23 Colegual INIA 04-05-2026 05:30 9 98,3 0 2,2 232 0 991
22 Colegual INIA 04-05-2026 05:15 9 98,5 0 2,1 248 0 991
21 Colegual INIA 04-05-2026 05:00 9 98,4 0 2 252 0 991
20 Colegual INIA 04-05-2026 04:45 9 98,7 0 1,7 263 0 992
19 Colegual INIA 04-05-2026 04:30 9,1 98,3 0,1 1,2 224 0 992
18 Colegual INIA 04-05-2026 04:15 9 98,7 0,2 2,2 208 0 992
17 Colegual INIA 04-05-2026 04:00 9 98,5 0 2,8 227 0 992
16 Colegual INIA 04-05-2026 03:45 9 98,4 0 3,4 229 0 992
15 Colegual INIA 04-05-2026 03:30 9 98 0 2,7 231 0 992
14 Colegual INIA 04-05-2026 03:15 9 98,2 0 2,3 232 0 992
13 Colegual INIA 04-05-2026 03:00 9 98,1 0 2,5 236 0 992
12 Colegual INIA 04-05-2026 02:45 9,1 97,6 0 2,3 225 0 993
11 Colegual INIA 04-05-2026 02:30 9,1 97,8 0 1,7 195 0 992
10 Colegual INIA 04-05-2026 02:15 9 97,4 0 2,1 211 0 992
9 Colegual INIA 04-05-2026 02:00 9 97,6 0 2,2 216 0 993
8 Colegual INIA 04-05-2026 01:45 9 97,3 0 2,8 220 0 993
7 Colegual INIA 04-05-2026 01:30 8,9 97,4 0 3,1 226 0 993
6 Colegual INIA 04-05-2026 01:15 8,9 97,4 0 2,9 228 0 993
5 Colegual INIA 04-05-2026 01:00 9 96,8 0 2,6 231 0 993
4 Colegual INIA 04-05-2026 00:45 9 96 0 2,7 233 0 993
3 Colegual INIA 04-05-2026 00:30 9 96,1 0 2,5 233 0 993
2 Colegual INIA 04-05-2026 00:15 9,1 96,4 0 3,2 225 0 993
1 Colegual INIA 04-05-2026 00:00 9 97,7 0 2,9 228 0 993